Airport View

Enter AWOS ICAO identifier for current METAR.

ex. KFNL

KBAB 191958Z AUTO 00000KT 8SM CLR 28/15 A2991 RMK AO2 SLP131 T02750148 $

19 Aug 2019 20:55

Other Area AWOS: KMYV - KLHM - KAUN - KGOO

TAF KBAB 191115Z 1911/2017 18009KT 9999 SKC QNH2984INS TX32/1923Z TN12/1913Z